createdAt,value
2023-03-07T00:01:00.070Z,4.67
2023-03-07T00:06:02.241Z,4.73
2023-03-07T00:10:52.727Z,4.88
2023-03-07T00:15:55.021Z,4.86
2023-03-07T00:20:54.492Z,4.79
2023-03-07T00:26:05.106Z,4.77
2023-03-07T00:31:00.413Z,4.77
2023-03-07T00:36:02.200Z,4.79
2023-03-07T00:41:11.357Z,4.80
2023-03-07T00:46:06.952Z,4.94
2023-03-07T00:50:58.170Z,4.87
2023-03-07T00:56:00.108Z,4.86
2023-03-07T01:00:56.443Z,4.93
2023-03-07T01:05:51.389Z,4.95
2023-03-07T01:10:48.342Z,4.94
2023-03-07T01:15:42.440Z,4.89
2023-03-07T01:20:36.339Z,4.88
2023-03-07T01:25:29.715Z,4.87
2023-03-07T01:30:31.072Z,4.82
2023-03-07T01:35:24.462Z,4.81
2023-03-07T01:40:20.685Z,4.71
2023-03-07T01:45:29.055Z,4.73
2023-03-07T01:50:27.177Z,4.70
2023-03-07T01:55:22.952Z,4.81
2023-03-07T02:00:25.725Z,4.84
2023-03-07T02:05:19.309Z,4.68
2023-03-07T02:10:15.644Z,4.77
2023-03-07T02:15:18.282Z,4.80
2023-03-07T02:20:23.429Z,4.77
2023-03-07T02:25:23.255Z,4.69
2023-03-07T02:30:20.441Z,4.73
2023-03-07T02:35:21.209Z,4.73
2023-03-07T02:40:26.592Z,4.74
2023-03-07T02:45:40.462Z,4.69
2023-03-07T02:50:33.738Z,4.68
2023-03-07T02:55:26.763Z,4.54
2023-03-07T03:00:26.659Z,4.61
2023-03-07T03:05:20.163Z,4.72
2023-03-07T03:10:14.747Z,4.60
2023-03-07T03:15:16.416Z,4.63
2023-03-07T03:20:14.030Z,4.51
2023-03-07T03:25:15.267Z,4.31
2023-03-07T03:30:10.716Z,4.31
2023-03-07T03:35:05.289Z,4.30
2023-03-07T03:39:56.911Z,4.15
2023-03-07T03:44:53.834Z,4.17
2023-03-07T03:49:46.225Z,4.13
2023-03-07T03:54:38.735Z,4.11
2023-03-07T03:59:30.335Z,4.10
2023-03-07T04:04:25.667Z,4.04
2023-03-07T04:09:15.323Z,4.09
2023-03-07T04:14:09.768Z,4.07
2023-03-07T04:19:09.810Z,4.00
2023-03-07T04:24:06.947Z,3.96
2023-03-07T04:28:57.949Z,3.87
2023-03-07T04:34:00.492Z,3.96
2023-03-07T04:38:54.658Z,3.95
2023-03-07T04:44:00.574Z,3.87
2023-03-07T04:48:57.708Z,3.88
2023-03-07T04:53:59.739Z,3.91
2023-03-07T04:58:58.500Z,3.82
2023-03-07T05:03:53.956Z,3.80
2023-03-07T05:08:52.265Z,3.71
2023-03-07T05:13:47.912Z,3.66
2023-03-07T05:18:53.110Z,3.64
2023-03-07T05:23:52.488Z,3.55
2023-03-07T05:28:46.100Z,3.47
2023-03-07T05:33:44.151Z,3.49
2023-03-07T05:38:43.126Z,3.41
2023-03-07T05:43:42.753Z,3.32
2023-03-07T05:48:33.363Z,3.21
2023-03-07T05:53:23.655Z,3.23
2023-03-07T05:58:18.262Z,3.22
2023-03-07T06:03:12.280Z,3.17
2023-03-07T06:08:04.672Z,3.03
2023-03-07T06:12:59.463Z,3.02
2023-03-07T06:18:07.119Z,2.93
2023-03-07T06:23:01.343Z,2.91
2023-03-07T06:28:06.393Z,2.89
2023-03-07T06:33:00.929Z,2.78
2023-03-07T06:37:50.753Z,2.86
2023-03-07T06:42:48.976Z,2.76
2023-03-07T06:47:45.106Z,2.72
2023-03-07T06:52:37.613Z,2.71
2023-03-07T06:57:29.762Z,2.64
2023-03-07T07:02:24.926Z,2.65
2023-03-07T07:07:23.745Z,2.61
2023-03-07T07:12:19.418Z,2.54
2023-03-07T07:17:17.978Z,2.43
2023-03-07T07:22:15.826Z,2.38
2023-03-07T07:27:06.760Z,2.38
2023-03-07T07:32:06.049Z,2.32
2023-03-07T07:36:57.361Z,2.33
2023-03-07T07:41:50.729Z,2.38
2023-03-07T07:46:45.511Z,2.36
2023-03-07T07:51:45.151Z,2.38
2023-03-07T07:56:36.906Z,2.27
2023-03-07T08:01:31.682Z,2.23
2023-03-07T08:06:22.423Z,2.20
2023-03-07T08:11:16.715Z,2.21
2023-03-07T08:16:15.347Z,2.24
2023-03-07T08:21:05.853Z,2.29
2023-03-07T08:25:57.496Z,2.31
2023-03-07T08:30:55.031Z,2.35
2023-03-07T08:35:46.218Z,2.37
2023-03-07T08:40:36.494Z,2.39
2023-03-07T08:45:30.467Z,2.47
2023-03-07T08:50:25.840Z,2.38
2023-03-07T08:55:18.838Z,2.38
2023-03-07T09:00:13.245Z,2.39
2023-03-07T09:05:10.332Z,2.44
2023-03-07T09:10:07.855Z,2.47
2023-03-07T09:15:01.988Z,2.50
2023-03-07T09:19:53.058Z,2.55
2023-03-07T09:25:01.691Z,2.65
2023-03-07T09:30:08.609Z,2.64
2023-03-07T09:35:09.589Z,2.67
2023-03-07T09:40:14.742Z,2.74
2023-03-07T09:45:21.476Z,2.84
2023-03-07T09:50:42.584Z,2.90
2023-03-07T09:55:39.374Z,2.95
2023-03-07T10:00:33.770Z,3.14
2023-03-07T10:05:38.420Z,3.21
2023-03-07T10:10:37.856Z,3.30
2023-03-07T10:15:42.663Z,3.50
2023-03-07T10:20:45.314Z,3.64
2023-03-07T10:25:47.770Z,3.63
2023-03-07T10:30:43.659Z,3.58
2023-03-07T10:35:44.919Z,3.51
2023-03-07T10:40:45.672Z,3.45
2023-03-07T10:45:40.110Z,3.19
2023-03-07T10:50:38.695Z,3.20
2023-03-07T10:55:41.629Z,3.10
2023-03-07T11:00:40.710Z,3.25
2023-03-07T11:05:36.970Z,3.18
2023-03-07T11:10:46.355Z,3.05
2023-03-07T11:15:45.714Z,3.00
2023-03-07T11:20:51.280Z,2.95
2023-03-07T11:25:45.662Z,3.09
2023-03-07T11:30:45.040Z,3.06
2023-03-07T11:35:56.624Z,3.12
2023-03-07T11:40:58.256Z,3.01
2023-03-07T11:46:06.583Z,3.11
2023-03-07T11:51:02.130Z,3.12
2023-03-07T11:56:00.219Z,3.22
2023-03-07T12:01:02.295Z,3.41
2023-03-07T12:06:09.836Z,3.59
2023-03-07T12:11:19.055Z,3.75
2023-03-07T12:16:15.513Z,3.88
2023-03-07T12:21:20.612Z,3.88
2023-03-07T12:26:19.401Z,3.33
2023-03-07T12:31:15.957Z,3.30
2023-03-07T12:36:10.446Z,3.40
2023-03-07T12:41:09.961Z,3.60
2023-03-07T12:46:14.420Z,3.53
2023-03-07T12:51:12.257Z,3.54
2023-03-07T12:56:07.514Z,3.36
2023-03-07T13:01:01.693Z,3.36
2023-03-07T13:05:56.570Z,3.16
2023-03-07T13:10:49.943Z,2.95
2023-03-07T13:16:04.459Z,2.76
2023-03-07T13:21:10.015Z,2.86
2023-03-07T13:26:08.120Z,2.78
2023-03-07T13:31:18.939Z,2.66
2023-03-07T13:36:36.156Z,2.64
2023-03-07T13:41:45.473Z,2.64
2023-03-07T13:47:02.963Z,2.68
2023-03-07T13:52:12.843Z,2.67
2023-03-07T13:57:13.281Z,2.73
2023-03-07T14:02:21.336Z,2.72
2023-03-07T14:07:17.766Z,2.68
2023-03-07T14:12:23.539Z,2.64
2023-03-07T14:17:37.824Z,2.71
2023-03-07T14:22:39.322Z,2.65
2023-03-07T14:27:36.578Z,2.50
2023-03-07T14:32:30.139Z,2.46
2023-03-07T14:37:22.080Z,2.36
2023-03-07T14:42:25.099Z,2.38
2023-03-07T14:47:31.181Z,2.52
2023-03-07T14:52:31.254Z,2.56
2023-03-07T14:57:26.906Z,2.53
2023-03-07T15:02:24.406Z,2.52
2023-03-07T15:07:25.740Z,2.52
2023-03-07T15:12:18.800Z,2.52
2023-03-07T15:17:15.044Z,2.52
2023-03-07T15:22:12.711Z,2.49
2023-03-07T15:27:12.051Z,2.49
2023-03-07T15:32:26.585Z,2.48
2023-03-07T15:37:33.201Z,2.42
2023-03-07T15:42:40.211Z,2.39
2023-03-07T15:47:40.087Z,2.40
2023-03-07T15:52:37.552Z,2.52
2023-03-07T15:57:36.024Z,2.53
2023-03-07T16:02:47.076Z,2.56
2023-03-07T16:07:40.491Z,2.54
2023-03-07T16:12:50.062Z,2.55
2023-03-07T16:17:42.954Z,2.45
2023-03-07T16:22:36.570Z,2.42
2023-03-07T16:27:39.464Z,2.42
2023-03-07T16:32:37.721Z,2.43
2023-03-07T16:37:34.533Z,2.38
2023-03-07T16:42:30.737Z,2.32
2023-03-07T16:47:22.468Z,2.35
2023-03-07T16:52:19.240Z,2.27
2023-03-07T16:57:27.114Z,2.32
2023-03-07T17:02:27.245Z,2.28
2023-03-07T17:07:26.918Z,2.27
2023-03-07T17:12:20.756Z,2.32
2023-03-07T17:17:19.487Z,2.35
2023-03-07T17:22:19.905Z,2.32
2023-03-07T17:27:14.073Z,2.22
2023-03-07T17:32:08.948Z,2.12
2023-03-07T17:37:12.335Z,2.10
2023-03-07T17:42:03.561Z,2.08
2023-03-07T17:47:08.029Z,2.04
2023-03-07T17:51:59.685Z,2.05
2023-03-07T17:56:53.801Z,2.05
2023-03-07T18:01:46.299Z,2.08
2023-03-07T18:06:41.055Z,2.11
2023-03-07T18:11:39.682Z,2.15
2023-03-07T18:16:32.960Z,2.20
2023-03-07T18:21:25.828Z,2.17
2023-03-07T18:26:19.583Z,2.26
2023-03-07T18:31:11.765Z,2.24
2023-03-07T18:36:08.367Z,2.22
2023-03-07T18:41:11.647Z,2.20
2023-03-07T18:46:09.468Z,2.17
2023-03-07T18:51:07.778Z,2.13
2023-03-07T18:55:59.109Z,2.00
2023-03-07T19:00:55.674Z,1.92
2023-03-07T19:05:57.228Z,1.86
2023-03-07T19:10:51.300Z,1.83
2023-03-07T19:15:44.143Z,1.73
2023-03-07T19:20:39.941Z,1.66
2023-03-07T19:25:39.855Z,1.57
2023-03-07T19:30:40.473Z,1.46
2023-03-07T19:35:33.415Z,1.40
2023-03-07T19:40:41.092Z,1.24
2023-03-07T19:45:43.935Z,1.11
2023-03-07T19:50:33.910Z,1.09
2023-03-07T19:55:24.952Z,1.12
2023-03-07T20:00:17.862Z,1.10
2023-03-07T20:05:21.380Z,1.11
2023-03-07T20:10:14.798Z,0.98
2023-03-07T20:15:10.490Z,0.95
2023-03-07T20:20:04.337Z,0.95
2023-03-07T20:25:03.227Z,0.98
2023-03-07T20:29:59.852Z,0.95
2023-03-07T20:34:53.629Z,0.88
2023-03-07T20:39:47.483Z,0.78
2023-03-07T20:44:44.335Z,0.69
2023-03-07T20:49:38.173Z,0.58
2023-03-07T20:54:27.851Z,0.62
2023-03-07T20:59:25.554Z,0.58
2023-03-07T21:04:21.689Z,0.50
2023-03-07T21:09:15.622Z,0.45
2023-03-07T21:14:07.471Z,0.47
2023-03-07T21:19:01.871Z,0.40
2023-03-07T21:23:54.611Z,0.30
2023-03-07T21:28:47.544Z,0.25
2023-03-07T21:33:43.663Z,0.18
2023-03-07T21:38:41.734Z,0.17
2023-03-07T21:43:41.390Z,0.20
2023-03-07T21:48:50.694Z,0.10
2023-03-07T21:53:45.547Z,0.20
2023-03-07T21:58:43.292Z,0.24
2023-03-07T22:03:36.563Z,0.24
2023-03-07T22:08:34.614Z,0.31
2023-03-07T22:13:27.855Z,0.30
2023-03-07T22:18:20.307Z,0.25
2023-03-07T22:23:13.613Z,0.24
2023-03-07T22:28:10.149Z,0.24
2023-03-07T22:33:08.376Z,0.18
2023-03-07T22:38:01.658Z,0.15
2023-03-07T22:42:54.186Z,0.15
2023-03-07T22:47:44.976Z,0.17
2023-03-07T22:52:34.560Z,0.25
2023-03-07T22:57:34.708Z,0.28
2023-03-07T23:02:32.958Z,0.28
2023-03-07T23:07:23.529Z,0.24
2023-03-07T23:12:15.449Z,0.22
2023-03-07T23:17:09.985Z,0.19
2023-03-07T23:22:03.031Z,0.08
2023-03-07T23:26:58.224Z,0.06
2023-03-07T23:31:51.401Z,0.05
2023-03-07T23:36:46.969Z,-0.04
2023-03-07T23:41:38.584Z,-0.08
2023-03-07T23:46:29.581Z,-0.08
2023-03-07T23:51:20.090Z,-0.12
2023-03-07T23:56:15.695Z,-0.12
